Issaquah, WA

2:10 PM PST on November 28, 2014 (GMT -0800)
Eastgate (Hills south of I-90 / 148th Ave Jct) | Change Station
CLOSE
Current Station
Personal Weather Station
Location: Bellevue, WA
Elevation: 976 ft
Nearby Weather Stations
Active Advisory: Flood Warning, Areal Flood Watch Active Notice: Record Report

Elev 976 ft 47.55 °N, 122.14 °W | Updated 16 seconds ago

Rain
Rain
38.2 °F
Feels Like 38 °F
N
1.0
Wind Variable Wind from North
Gusts 3.0 mph

Today
High -- | Low -- °F
--% Chance of Precip.
Yesterday
High -- | Low -- °F
Precip. -- in
7:32 AM 4:20 PM
Waxing Crescent, 44% visible
Pressure 29.50 in
Visibility 4.0 miles
Clouds Few 2500 ft
Scattered Clouds 4000 ft
Overcast 4600 ft
Windchill 38 °F
Dew Point 36 °F
Humidity 93%
Rainfall 1.23 in
Snow Depth Not available.
UV 0 out of 12
Pollen .10 out of 12
Air Quality Not available.
Flu Activity Not available.
METAR KRNT 282153Z 35010G14KT 4SM -RA BR FEW025 SCT040 OVC046 06/04 A2948 RMK AO2 SLP988 P0009 T00560044

More Conditions Fewer Conditions

Pressure 29.50 in
Visibility 4.0 miles
Clouds Few 2500 ft
Scattered Clouds 4000 ft
Overcast 4600 ft
Windchill 38 °F
Dew Point 36 °F
Humidity 93%
Rainfall 1.23 in
Snow Depth Not available.
UV 0 out of 12
Pollen .10 out of 12
Air Quality Not available.
Flu Activity Not available.
METAR KRNT 282153Z 35010G14KT 4SM -RA BR FEW025 SCT040 OVC046 06/04 A2948 RMK AO2 SLP988 P0009 T00560044

More Conditions Fewer Conditions

10-Day Weather Forecast

Almanac

Astronomy

Nov. 28, 2014 Rise Set
Actual Time
Civil Twilight
Nautical Twilight
Astronomical Twilight
Moon
Length of Visible Light
Length of Day
Tomorrow will be .
, % of the Moon is Illuminated

Today's Extremes

State Highs State Lows

Community

WunderPhotos

Upload Photos

1,774,313 photos uploaded!

WunderBlogs® & News

Nearby

Air Quality

  Air Quality AQ Index Pollutant
Not available.

Snow Depth

Station Depth Elevation

Earthquake Activity

City Distance Mag. Time & Date
Minimum magnitude displayed is 2.5.

Coastal Water Temperatures

Place Temperature

Nearby Weather Stations